Piarco FIR Weather

TAPA 161800Z 11013KT 9999 SCT018 30/24 Q1018 NOSIG

TBPB 161800Z 10012KT 9999 VCSH FEW016CB SCT018 30/24 Q1016 NOSIG

TDPD 161800Z 12009KT 9999 BKN018 30/24 Q1018

TFFF 161830Z AUTO 11015KT 080V140 9999 FEW031 31/22 Q1016 NOSIG

TFFR 161830Z AUTO 12014KT 090V150 9999 BKN030/// BKN037/// ///CB 30/24 Q1017 BECMG SCT025

TGPY 161800Z 12010KT 9999 SCT019 30/25 Q1015 NOSIG

TKPK 161800Z 10009KT 9999 SCT016 30/24 Q1018

TKPN 161800Z 10009KT 9999 VCSH BKN016 SCT050 28/25 Q1017

TLPC 161800Z 12010G21KT 9999 BKN025 31/24 Q1016 NOSIG

TLPL 161800Z 10018KT 9999 FEW028 31/24 Q1016 NOSIG

TTCP 161800Z 13010KT 9999 FEW022 30/24 Q1015 NOSIG

TTPP 161800Z 11006KT 060V190 9999 VCSH SCT020 32/23 Q1015 NOSIG RMK VCSH S SW

TVSV 152200Z 00000KT 9999 FEW022 SCT032 28/23 Q1014 NOSIG